createdAt,value
2018-08-19T00:00:29.577Z,70.87
2018-08-19T00:03:00.946Z,70.21
2018-08-19T00:05:29.374Z,71.22
2018-08-19T00:07:57.943Z,70.56
2018-08-19T00:10:40.824Z,69.86
2018-08-19T00:13:11.027Z,70.33
2018-08-19T00:15:40.048Z,70.37
2018-08-19T00:18:10.212Z,69.67
2018-08-19T00:20:38.647Z,70.60
2018-08-19T00:23:07.648Z,70.62
2018-08-19T00:25:38.335Z,71.95
2018-08-19T00:28:12.451Z,72.56
2018-08-19T00:30:40.860Z,71.91
2018-08-19T00:33:09.428Z,72.26
2018-08-19T00:35:37.849Z,72.60
2018-08-19T00:38:09.296Z,72.72
2018-08-19T00:40:37.886Z,73.53
2018-08-19T00:43:06.325Z,72.54
2018-08-19T00:45:35.263Z,72.50
2018-08-19T00:48:03.671Z,72.49
2018-08-19T00:50:32.074Z,72.38
2018-08-19T00:53:00.488Z,73.48
2018-08-19T00:56:04.566Z,73.37
2018-08-19T00:58:32.944Z,74.03
2018-08-19T01:01:01.311Z,73.93
2018-08-19T01:03:31.834Z,73.84
2018-08-19T01:06:00.240Z,73.51
2018-08-19T01:08:28.595Z,74.42
2018-08-19T01:10:57.103Z,74.36
2018-08-19T01:13:25.530Z,74.21
2018-08-19T01:15:53.965Z,73.35
2018-08-19T01:18:22.280Z,73.51
2018-08-19T01:20:59.531Z,73.97
2018-08-19T01:23:27.905Z,74.20
2018-08-19T01:25:56.256Z,75.43
2018-08-19T01:28:24.820Z,76.07
2018-08-19T01:30:53.223Z,76.27
2018-08-19T01:33:21.694Z,76.49
2018-08-19T01:35:50.133Z,75.15
2018-08-19T01:38:18.436Z,75.89
2018-08-19T01:40:46.837Z,75.60
2018-08-19T01:43:15.777Z,75.83
2018-08-19T01:45:44.127Z,76.09
2018-08-19T01:48:12.456Z,76.74
2018-08-19T01:50:41.001Z,76.55
2018-08-19T01:53:09.362Z,76.93
2018-08-19T01:55:37.765Z,77.19
2018-08-19T01:58:06.528Z,76.86
2018-08-19T02:00:34.935Z,77.37
2018-08-19T02:03:04.896Z,76.89
2018-08-19T02:05:33.291Z,76.68
2018-08-19T02:08:02.859Z,77.60
2018-08-19T02:10:32.157Z,77.25
2018-08-19T02:13:00.970Z,77.88
2018-08-19T02:15:30.658Z,77.26
2018-08-19T02:18:03.465Z,77.27
2018-08-19T02:20:33.982Z,78.04
2018-08-19T02:23:03.483Z,78.78
2018-08-19T02:25:35.609Z,78.18
2018-08-19T02:28:04.935Z,78.02
2018-08-19T02:30:33.814Z,77.99
2018-08-19T02:33:02.499Z,77.48
2018-08-19T02:35:30.891Z,78.20
2018-08-19T02:37:59.605Z,78.81
2018-08-19T02:40:30.329Z,78.26
2018-08-19T02:42:58.723Z,79.32
2018-08-19T02:45:27.428Z,79.26
2018-08-19T02:47:55.810Z,78.60
2018-08-19T02:50:24.207Z,78.84
2018-08-19T02:52:52.829Z,79.64
2018-08-19T02:55:21.227Z,79.60
2018-08-19T02:57:49.823Z,78.62
2018-08-19T03:00:20.280Z,78.94
2018-08-19T03:02:48.632Z,79.73
2018-08-19T03:05:17.142Z,79.61
2018-08-19T03:07:45.531Z,79.61
2018-08-19T03:10:16.093Z,79.80
2018-08-19T03:12:45.095Z,80.64
2018-08-19T03:15:15.216Z,80.23
2018-08-19T03:17:46.651Z,80.92
2018-08-19T03:20:15.328Z,80.81
2018-08-19T03:22:43.811Z,80.52
2018-08-19T03:25:12.441Z,80.35
2018-08-19T03:27:41.130Z,80.53
2018-08-19T03:30:11.661Z,80.42
2018-08-19T03:32:46.823Z,81.44
2018-08-19T03:35:18.250Z,81.04
2018-08-19T03:37:46.786Z,81.76
2018-08-19T03:40:15.271Z,80.99
2018-08-19T03:42:43.651Z,81.59
2018-08-19T03:45:17.203Z,81.66
2018-08-19T03:47:46.680Z,81.71
2018-08-19T03:50:20.713Z,81.60
2018-08-19T03:52:49.280Z,82.55
2018-08-19T03:55:25.057Z,82.65
2018-08-19T03:57:55.059Z,82.31
2018-08-19T04:00:23.423Z,82.89
2018-08-19T04:02:51.779Z,83.54
2018-08-19T04:05:35.097Z,83.21
2018-08-19T04:08:03.656Z,83.35
2018-08-19T04:10:32.020Z,83.35
2018-08-19T04:13:00.393Z,83.32
2018-08-19T04:15:28.780Z,83.42
2018-08-19T04:17:57.120Z,83.56
2018-08-19T04:20:25.799Z,83.94
2018-08-19T04:22:54.108Z,84.01
2018-08-19T04:25:27.752Z,83.18
2018-08-19T04:27:56.108Z,83.23
2018-08-19T04:30:24.464Z,84.02
2018-08-19T04:32:52.808Z,83.47
2018-08-19T04:35:21.263Z,83.94
2018-08-19T04:37:49.680Z,83.60
2018-08-19T04:40:18.209Z,83.18
2018-08-19T04:42:46.637Z,82.85
2018-08-19T04:45:14.980Z,82.33
2018-08-19T04:47:43.326Z,84.10
2018-08-19T04:50:11.690Z,84.57
2018-08-19T04:52:40.027Z,83.84
2018-08-19T04:55:08.419Z,83.04
2018-08-19T04:57:36.802Z,82.99
2018-08-19T05:00:05.223Z,83.47
2018-08-19T05:02:33.638Z,82.86
2018-08-19T05:05:01.945Z,83.30
2018-08-19T05:07:30.367Z,84.30
2018-08-19T05:09:59.105Z,83.95
2018-08-19T05:12:27.522Z,83.62
2018-08-19T05:14:56.040Z,82.40
2018-08-19T05:17:24.386Z,83.47
2018-08-19T05:19:58.632Z,84.05
2018-08-19T05:22:27.201Z,83.86
2018-08-19T05:24:55.656Z,82.71
2018-08-19T05:27:24.074Z,82.30
2018-08-19T05:29:52.684Z,83.99
2018-08-19T05:32:21.036Z,82.89
2018-08-19T05:34:49.357Z,81.73
2018-08-19T05:37:17.782Z,81.84
2018-08-19T05:39:51.318Z,82.89
2018-08-19T05:42:19.644Z,82.79
2018-08-19T05:44:47.991Z,81.39
2018-08-19T05:47:17.678Z,80.82
2018-08-19T05:49:47.055Z,81.47
2018-08-19T05:52:22.527Z,81.55
2018-08-19T05:54:59.928Z,80.30
2018-08-19T05:57:34.850Z,79.72
2018-08-19T06:00:08.483Z,79.86
2018-08-19T06:02:43.197Z,78.93
2018-08-19T06:05:11.661Z,78.70
2018-08-19T06:07:40.021Z,77.86
2018-08-19T06:10:08.721Z,74.89
2018-08-19T06:12:37.056Z,73.13
2018-08-19T06:15:05.834Z,73.64
2018-08-19T06:17:34.276Z,70.48
2018-08-19T06:20:02.651Z,72.38
2018-08-19T06:22:36.355Z,70.75
2018-08-19T06:25:04.833Z,70.02
2018-08-19T06:27:44.861Z,70.38
2018-08-19T06:30:13.990Z,68.24
2018-08-19T06:32:42.385Z,67.32
2018-08-19T06:35:10.746Z,67.90
2018-08-19T06:37:39.135Z,69.30
2018-08-19T06:40:09.372Z,68.25
2018-08-19T06:42:37.734Z,67.72
2018-08-19T06:45:06.706Z,66.11
2018-08-19T06:47:35.158Z,65.66
2018-08-19T06:50:11.355Z,65.76
2018-08-19T06:52:39.799Z,65.06
2018-08-19T06:55:08.264Z,65.96
2018-08-19T06:57:36.659Z,66.60
2018-08-19T07:00:07.608Z,66.81
2018-08-19T07:02:36.067Z,64.77
2018-08-19T07:05:06.416Z,64.04
2018-08-19T07:07:35.482Z,65.33
2018-08-19T07:10:04.415Z,64.71
2018-08-19T07:12:33.367Z,63.38
2018-08-19T07:15:01.823Z,63.55
2018-08-19T07:17:30.259Z,62.54
2018-08-19T07:19:58.661Z,62.11
2018-08-19T07:22:27.032Z,62.77
2018-08-19T07:24:55.412Z,61.84
2018-08-19T07:27:23.776Z,62.08
2018-08-19T07:29:52.787Z,61.64
2018-08-19T07:32:21.116Z,60.91
2018-08-19T07:34:49.495Z,60.55
2018-08-19T07:37:17.868Z,61.28
2018-08-19T07:39:51.459Z,59.12
2018-08-19T07:42:19.797Z,56.28
2018-08-19T07:44:48.189Z,56.03
2018-08-19T07:47:16.611Z,55.55
2018-08-19T07:49:46.260Z,56.11
2018-08-19T07:52:14.692Z,56.03
2018-08-19T07:54:43.102Z,56.57
2018-08-19T07:57:21.510Z,56.20
2018-08-19T07:59:49.878Z,56.83
2018-08-19T08:02:18.290Z,56.42
2018-08-19T08:04:47.011Z,54.46
2018-08-19T08:07:15.641Z,54.68
2018-08-19T08:09:44.371Z,53.55
2018-08-19T08:12:14.473Z,53.46
2018-08-19T08:14:48.077Z,52.86
2018-08-19T08:17:16.584Z,53.16
2018-08-19T08:19:52.054Z,52.37
2018-08-19T08:22:20.858Z,53.07
2018-08-19T08:24:49.221Z,51.20
2018-08-19T08:27:17.668Z,52.32
2018-08-19T08:29:46.145Z,53.21
2018-08-19T08:32:14.713Z,53.60
2018-08-19T08:34:43.342Z,55.36
2018-08-19T08:37:12.956Z,55.29
2018-08-19T08:39:41.387Z,55.70
2018-08-19T08:42:09.812Z,54.88
2018-08-19T08:44:38.323Z,56.08
2018-08-19T08:47:09.314Z,55.88
2018-08-19T08:49:43.230Z,56.42
2018-08-19T08:52:21.451Z,55.90
2018-08-19T08:55:08.351Z,56.02
2018-08-19T08:57:38.022Z,55.59
2018-08-19T09:00:08.388Z,56.65
2018-08-19T09:02:36.870Z,56.16
2018-08-19T09:05:06.802Z,55.13
2018-08-19T09:07:35.140Z,56.40
2018-08-19T09:10:03.626Z,54.98
2018-08-19T09:12:46.679Z,56.41
2018-08-19T09:15:15.118Z,56.47
2018-08-19T09:17:43.953Z,55.41
2018-08-19T09:20:12.553Z,55.97
2018-08-19T09:22:41.230Z,56.80
2018-08-19T09:25:10.415Z,54.43
2018-08-19T09:27:39.639Z,53.86
2018-08-19T09:30:09.328Z,54.16
2018-08-19T09:33:02.846Z,54.29
2018-08-19T09:35:37.267Z,53.08
2018-08-19T09:38:11.728Z,54.10
2018-08-19T09:40:40.239Z,52.60
2018-08-19T09:43:09.273Z,53.42
2018-08-19T09:45:37.936Z,54.85
2018-08-19T09:48:06.952Z,55.08
2018-08-19T09:50:36.314Z,54.61
2018-08-19T09:53:04.936Z,54.22
2018-08-19T09:55:38.708Z,53.75
2018-08-19T09:58:11.604Z,55.54
2018-08-19T10:00:45.267Z,53.26
2018-08-19T10:03:13.651Z,53.54
2018-08-19T10:05:42.197Z,53.50
2018-08-19T10:08:10.582Z,54.08
2018-08-19T10:10:39.181Z,54.02
2018-08-19T10:13:07.937Z,52.48
2018-08-19T10:15:36.886Z,51.52
2018-08-19T10:18:08.243Z,50.66
2018-08-19T10:20:36.574Z,52.07
2018-08-19T10:23:05.081Z,51.57
2018-08-19T10:25:33.531Z,50.60
2018-08-19T10:28:02.137Z,50.83
2018-08-19T10:30:30.606Z,50.30
2018-08-19T10:33:04.527Z,49.38
2018-08-19T10:35:33.986Z,50.15
2018-08-19T10:38:02.956Z,49.15
2018-08-19T10:40:31.454Z,49.46
2018-08-19T10:43:04.012Z,50.03
2018-08-19T10:45:32.942Z,47.44
2018-08-19T10:48:01.292Z,46.82
2018-08-19T10:50:30.463Z,47.81
2018-08-19T10:52:58.890Z,48.84
2018-08-19T10:55:27.791Z,48.05
2018-08-19T10:57:56.232Z,47.11
2018-08-19T11:00:29.216Z,46.57
2018-08-19T11:03:09.268Z,47.58
2018-08-19T11:05:39.916Z,47.99
2018-08-19T11:08:08.687Z,45.92
2018-08-19T11:10:38.136Z,46.31
2018-08-19T11:13:06.933Z,45.79
2018-08-19T11:15:45.123Z,44.78
2018-08-19T11:18:24.447Z,44.82
2018-08-19T11:20:56.033Z,45.48
2018-08-19T11:23:25.945Z,43.82
2018-08-19T11:25:55.179Z,44.70
2018-08-19T11:28:41.500Z,43.98
2018-08-19T11:31:20.782Z,44.17
2018-08-19T11:33:49.468Z,43.90
2018-08-19T11:36:17.796Z,43.70
2018-08-19T11:38:49.984Z,41.54
2018-08-19T11:41:19.336Z,43.21
2018-08-19T11:43:48.805Z,41.43
2018-08-19T11:46:17.179Z,41.46
2018-08-19T11:48:45.665Z,41.00
2018-08-19T11:51:13.967Z,40.36
2018-08-19T11:53:42.293Z,40.96
2018-08-19T11:56:10.644Z,41.63
2018-08-19T11:58:44.960Z,40.94
2018-08-19T12:01:21.500Z,40.75
2018-08-19T12:03:59.636Z,40.64
2018-08-19T12:06:30.086Z,40.01
2018-08-19T12:08:59.899Z,39.58
2018-08-19T12:11:30.802Z,39.37
2018-08-19T12:14:00.361Z,40.07
2018-08-19T12:16:28.765Z,38.83
2018-08-19T12:19:05.302Z,38.57
2018-08-19T12:21:37.834Z,37.92
2018-08-19T12:24:18.196Z,37.38
2018-08-19T12:26:46.538Z,38.26
2018-08-19T12:29:14.900Z,38.73
2018-08-19T12:31:43.248Z,39.25
2018-08-19T12:34:11.620Z,37.92
2018-08-19T12:36:40.026Z,38.51
2018-08-19T12:39:09.833Z,36.84
2018-08-19T12:41:45.453Z,35.96
2018-08-19T12:44:13.987Z,37.15
2018-08-19T12:46:52.576Z,36.42
2018-08-19T12:49:21.137Z,35.38
2018-08-19T12:51:49.505Z,35.47
2018-08-19T12:54:18.059Z,36.04
2018-08-19T12:56:49.350Z,34.07
2018-08-19T12:59:17.732Z,34.16
2018-08-19T13:01:46.113Z,34.89
2018-08-19T13:04:14.469Z,35.23
2018-08-19T13:06:56.891Z,36.12
2018-08-19T13:09:30.272Z,35.75
2018-08-19T13:12:05.203Z,36.03
2018-08-19T13:14:33.790Z,37.61
2018-08-19T13:17:02.158Z,35.44
2018-08-19T13:19:31.174Z,35.43
2018-08-19T13:22:00.427Z,34.94
2018-08-19T13:24:33.996Z,35.57
2018-08-19T13:27:02.678Z,35.88
2018-08-19T13:29:31.309Z,36.49
2018-08-19T13:31:59.688Z,36.14
2018-08-19T13:34:28.647Z,36.27
2018-08-19T13:36:57.615Z,35.82
2018-08-19T13:39:26.476Z,35.06
2018-08-19T13:41:55.172Z,36.16
2018-08-19T13:44:23.547Z,36.69
2018-08-19T13:46:52.050Z,36.65
2018-08-19T13:49:24.862Z,35.38
2018-08-19T13:51:53.302Z,34.44
2018-08-19T13:54:22.697Z,35.03
2018-08-19T13:56:51.253Z,35.38
2018-08-19T13:59:19.644Z,34.79
2018-08-19T14:01:48.836Z,35.57
2018-08-19T14:04:17.968Z,35.14
2018-08-19T14:06:48.279Z,34.89
2018-08-19T14:09:17.522Z,35.89
2018-08-19T14:11:47.183Z,34.58
2018-08-19T14:14:16.364Z,35.26
2018-08-19T14:16:44.817Z,34.76
2018-08-19T14:19:17.526Z,35.50
2018-08-19T14:21:46.947Z,36.08
2018-08-19T14:24:15.255Z,36.33
2018-08-19T14:26:43.655Z,34.22
2018-08-19T14:29:12.875Z,35.14
2018-08-19T14:31:41.271Z,35.43
2018-08-19T14:34:09.584Z,35.22
2018-08-19T14:36:38.014Z,35.54
2018-08-19T14:39:07.809Z,36.32
2018-08-19T14:41:36.294Z,36.58
2018-08-19T14:44:04.768Z,36.42
2018-08-19T14:46:36.086Z,36.70
2018-08-19T14:49:06.590Z,36.22
2018-08-19T14:52:13.156Z,36.72
2018-08-19T14:54:41.774Z,36.98
2018-08-19T14:57:10.175Z,36.15
2018-08-19T14:59:38.577Z,36.08
2018-08-19T15:02:07.069Z,37.31
2018-08-19T15:04:35.475Z,36.17
2018-08-19T15:07:04.020Z,36.51
2018-08-19T15:09:33.373Z,36.75
2018-08-19T15:12:09.888Z,36.32
2018-08-19T15:14:38.507Z,35.98
2018-08-19T15:17:09.063Z,36.08
2018-08-19T15:19:40.606Z,36.62
2018-08-19T15:22:09.143Z,37.09
2018-08-19T15:24:39.984Z,36.47
2018-08-19T15:27:08.328Z,36.20
2018-08-19T15:29:40.246Z,35.77
2018-08-19T15:32:08.869Z,35.64
2018-08-19T15:34:37.168Z,35.45
2018-08-19T15:37:06.438Z,35.44
2018-08-19T15:39:36.649Z,35.72
2018-08-19T15:42:05.188Z,35.48
2018-08-19T15:44:33.568Z,34.94
2018-08-19T15:47:01.984Z,34.71
2018-08-19T15:49:30.364Z,35.24
2018-08-19T15:51:58.767Z,35.55
2018-08-19T15:54:27.994Z,34.62
2018-08-19T15:57:02.102Z,35.03
2018-08-19T15:59:36.148Z,35.55
2018-08-19T16:02:05.430Z,35.97
2018-08-19T16:04:33.798Z,36.72
2018-08-19T16:07:02.410Z,35.30
2018-08-19T16:09:31.289Z,35.75
2018-08-19T16:11:59.679Z,35.07
2018-08-19T16:14:29.286Z,35.54
2018-08-19T16:16:58.959Z,35.35
2018-08-19T16:19:27.291Z,35.09
2018-08-19T16:21:57.650Z,35.28
2018-08-19T16:24:26.441Z,35.97
2018-08-19T16:26:54.834Z,36.63
2018-08-19T16:29:23.183Z,35.83
2018-08-19T16:31:51.597Z,37.03
2018-08-19T16:34:20.000Z,37.02
2018-08-19T16:36:48.420Z,36.90
2018-08-19T16:39:18.313Z,36.56
2018-08-19T16:41:47.035Z,37.33
2018-08-19T16:44:15.459Z,36.77
2018-08-19T16:46:43.808Z,37.07
2018-08-19T16:49:12.176Z,37.20
2018-08-19T16:51:40.544Z,36.79
2018-08-19T16:54:08.943Z,37.79
2018-08-19T16:56:37.331Z,37.80
2018-08-19T16:59:05.792Z,37.88
2018-08-19T17:01:34.184Z,37.90
2018-08-19T17:04:02.570Z,37.71
2018-08-19T17:06:31.010Z,38.37
2018-08-19T17:08:59.387Z,37.99
2018-08-19T17:11:27.781Z,37.88
2018-08-19T17:13:56.165Z,38.57
2018-08-19T17:16:24.595Z,38.66
2018-08-19T17:18:53.005Z,38.92
2018-08-19T17:21:21.381Z,39.12
2018-08-19T17:23:51.275Z,39.07
2018-08-19T17:26:20.762Z,39.31
2018-08-19T17:28:49.205Z,40.34
2018-08-19T17:31:17.599Z,40.79
2018-08-19T17:33:45.959Z,41.35
2018-08-19T17:36:23.732Z,42.00
2018-08-19T17:38:52.117Z,42.72
2018-08-19T17:41:20.507Z,42.38
2018-08-19T17:43:48.919Z,43.44
2018-08-19T17:46:19.384Z,43.89
2018-08-19T17:48:47.783Z,43.57
2018-08-19T17:51:30.697Z,44.06
2018-08-19T17:53:59.372Z,44.35
2018-08-19T17:56:27.727Z,44.19
2018-08-19T17:58:56.050Z,44.93
2018-08-19T18:01:24.507Z,45.68
2018-08-19T18:03:52.975Z,44.87
2018-08-19T18:06:21.388Z,45.11
2018-08-19T18:08:51.059Z,45.69
2018-08-19T18:11:19.790Z,45.89
2018-08-19T18:13:48.482Z,45.94
2018-08-19T18:16:16.917Z,46.64
2018-08-19T18:18:46.135Z,46.81
2018-08-19T18:21:14.696Z,46.87
2018-08-19T18:23:44.965Z,47.26
2018-08-19T18:26:13.421Z,47.54
2018-08-19T18:28:43.766Z,47.50
2018-08-19T18:31:12.155Z,47.81
2018-08-19T18:33:47.646Z,48.18
2018-08-19T18:36:16.270Z,48.09
2018-08-19T18:38:44.640Z,48.65
2018-08-19T18:41:20.373Z,48.69
2018-08-19T18:43:51.354Z,48.72
2018-08-19T18:46:20.213Z,48.74
2018-08-19T18:48:52.559Z,49.31
2018-08-19T18:51:20.880Z,49.81
2018-08-19T18:53:49.223Z,49.43
2018-08-19T18:56:17.753Z,49.78
2018-08-19T18:58:46.101Z,50.63
2018-08-19T19:01:15.408Z,50.67
2018-08-19T19:03:44.206Z,50.36
2018-08-19T19:06:12.656Z,50.43
2018-08-19T19:08:41.216Z,50.86
2018-08-19T19:11:09.613Z,50.67
2018-08-19T19:13:38.064Z,51.22
2018-08-19T19:16:06.666Z,51.47
2018-08-19T19:18:35.122Z,51.49
2018-08-19T19:21:04.738Z,51.91
2018-08-19T19:23:36.688Z,52.31
2018-08-19T19:26:06.201Z,52.67
2018-08-19T19:28:34.580Z,52.31
2018-08-19T19:31:08.223Z,53.00
2018-08-19T19:33:37.250Z,53.08
2018-08-19T19:36:10.898Z,52.46
2018-08-19T19:38:48.415Z,53.54
2018-08-19T19:41:21.244Z,53.11
2018-08-19T19:43:49.736Z,52.42
2018-08-19T19:46:18.132Z,53.30
2018-08-19T19:48:46.679Z,52.57
2018-08-19T19:51:15.083Z,52.57
2018-08-19T19:53:43.638Z,52.87
2018-08-19T19:56:16.295Z,53.83
2018-08-19T19:58:46.103Z,53.49
2018-08-19T20:01:14.849Z,53.87
2018-08-19T20:03:51.326Z,53.74
2018-08-19T20:06:19.704Z,53.91
2018-08-19T20:08:48.091Z,53.79
2018-08-19T20:11:22.185Z,53.48
2018-08-19T20:13:50.638Z,54.04
2018-08-19T20:16:19.471Z,54.03
2018-08-19T20:18:47.928Z,54.29
2018-08-19T20:21:21.608Z,53.79
2018-08-19T20:23:50.025Z,54.00
2018-08-19T20:26:18.420Z,54.45
2018-08-19T20:28:49.159Z,54.61
2018-08-19T20:31:17.676Z,54.75
2018-08-19T20:33:46.431Z,55.33
2018-08-19T20:36:15.341Z,55.37
2018-08-19T20:38:43.824Z,55.23
2018-08-19T20:41:12.384Z,55.69
2018-08-19T20:43:40.823Z,55.79
2018-08-19T20:46:09.300Z,56.04
2018-08-19T20:48:37.701Z,55.54
2018-08-19T20:51:06.125Z,55.79
2018-08-19T20:53:37.593Z,56.64
2018-08-19T20:56:06.010Z,56.85
2018-08-19T20:58:34.414Z,56.65
2018-08-19T21:01:02.816Z,56.85
2018-08-19T21:03:31.447Z,57.15
2018-08-19T21:05:59.816Z,57.39
2018-08-19T21:08:28.273Z,57.46
2018-08-19T21:10:56.725Z,57.70
2018-08-19T21:13:25.148Z,58.06
2018-08-19T21:15:56.867Z,58.15
2018-08-19T21:18:25.280Z,58.29
2018-08-19T21:20:54.396Z,59.38
2018-08-19T21:23:26.148Z,58.92
2018-08-19T21:26:00.089Z,59.19
2018-08-19T21:28:30.341Z,59.78
2018-08-19T21:30:59.177Z,59.72
2018-08-19T21:33:28.223Z,59.70
2018-08-19T21:35:57.530Z,60.04
2018-08-19T21:38:26.430Z,60.42
2018-08-19T21:40:56.923Z,60.21
2018-08-19T21:43:30.683Z,60.29
2018-08-19T21:46:00.163Z,61.12
2018-08-19T21:48:29.156Z,60.92
2018-08-19T21:50:57.555Z,61.20
2018-08-19T21:53:26.060Z,61.55
2018-08-19T21:55:54.834Z,62.19
2018-08-19T21:58:26.705Z,61.72
2018-08-19T22:00:58.830Z,61.38
2018-08-19T22:03:32.410Z,61.68
2018-08-19T22:06:02.478Z,61.66
2018-08-19T22:08:30.873Z,61.86
2018-08-19T22:10:59.216Z,62.14
2018-08-19T22:13:27.636Z,62.26
2018-08-19T22:15:56.032Z,62.43
2018-08-19T22:18:27.607Z,63.25
2018-08-19T22:21:22.618Z,62.96
2018-08-19T22:23:52.726Z,62.38
2018-08-19T22:26:22.173Z,62.95
2018-08-19T22:29:07.094Z,63.02
2018-08-19T22:31:35.480Z,63.52
2018-08-19T22:34:03.860Z,64.05
2018-08-19T22:36:32.455Z,64.28
2018-08-19T22:39:00.886Z,64.32
2018-08-19T22:41:30.860Z,65.14
2018-08-19T22:43:59.339Z,65.20
2018-08-19T22:46:28.322Z,64.95
2018-08-19T22:49:02.858Z,65.57
2018-08-19T22:51:32.847Z,65.23
2018-08-19T22:54:01.802Z,64.98
2018-08-19T22:56:30.184Z,66.16
2018-08-19T22:58:58.612Z,65.50
2018-08-19T23:01:31.187Z,66.00
2018-08-19T23:04:01.442Z,65.48
2018-08-19T23:06:30.427Z,65.91
2018-08-19T23:08:58.893Z,65.76
2018-08-19T23:11:34.854Z,66.38
2018-08-19T23:14:14.611Z,67.00
2018-08-19T23:16:43.243Z,67.17
2018-08-19T23:19:11.674Z,67.01
2018-08-19T23:21:40.104Z,66.32
2018-08-19T23:24:08.541Z,68.13
2018-08-19T23:26:36.907Z,68.08
2018-08-19T23:29:05.358Z,68.50
2018-08-19T23:31:33.782Z,67.69
2018-08-19T23:34:02.174Z,67.85
2018-08-19T23:36:31.704Z,68.08
2018-08-19T23:39:00.194Z,68.93
2018-08-19T23:41:29.698Z,68.75
2018-08-19T23:43:58.092Z,68.95
2018-08-19T23:46:26.719Z,68.57
2018-08-19T23:48:55.102Z,68.21
2018-08-19T23:51:30.946Z,68.93
2018-08-19T23:54:00.510Z,69.66
2018-08-19T23:56:29.317Z,69.26
2018-08-19T23:58:58.167Z,69.43
